Current | Forecast
Updated: 9:50 AM EET on February 19, 2018
Observed at Vilnius, Belarus
Temperature 23°F
Windchill 18°F
Humidity 86%
Dew Point 19°F
Wind East at 4 mph
Pressure 30.18 in (Steady)
Conditions Light Snow
Visibility 6.2 miles
UV 0 out of 16
Clouds Overcast (OVC) : 1000 ft
Yesterday's Maximum 27°F
Yesterday's Minimum 23°F approx.
Yesterday's Heating Degree Days 40 approx.
Sunrise8:31 AM +03
Sunset6:36 PM +03
Moon Rise10:07 AM +03
Moon Set10:43 PM +03
Moon PhaseMoon Phase
Waxing Crescent
Raw METARMETAR EYVI 190750Z 08003KT 060V120 9999 -SN OVC010 M05/M07 Q1022 R01/5/0294 NOSIG


Monday
. High: 53° F.
Tuesday
. High: 57° F.
Wednesday
. High: 68° F.
Thursday
. High: 71° F.
Friday
. High: 66° F.
Saturday
. High: 57° F.
Sunday
. High: 59° F.
Monday
. High: 53° F.

Units: English | Metric

Find the Weather for any City, State or Zipcode, or Country:

U.S. State List | Severe Weather | Tropical Storms | Ski Conditions
United States | Canada | Central America | South America | Asia | Europe | Australia | Africa | Islands

Weather Underground

© Copyright 2018
The Weather Company, LLC